createdAt,value
2023-03-20T00:01:17.263Z,96290.66
2023-03-20T00:03:44.301Z,96286.16
2023-03-20T00:06:25.076Z,96263.88
2023-03-20T00:08:54.049Z,96268.28
2023-03-20T00:11:28.215Z,96239.81
2023-03-20T00:14:13.488Z,96225.50
2023-03-20T00:16:43.678Z,96221.75
2023-03-20T00:19:17.665Z,96201.28
2023-03-20T00:21:47.545Z,96195.91
2023-03-20T00:24:15.925Z,96180.72
2023-03-20T00:26:44.215Z,96157.25
2023-03-20T00:29:18.610Z,96166.59
2023-03-20T00:31:45.271Z,96161.53
2023-03-20T00:34:17.649Z,96138.00
2023-03-20T00:36:44.238Z,96140.78
2023-03-20T00:39:11.017Z,96129.34
2023-03-20T00:41:57.191Z,96124.47
2023-03-20T00:44:29.677Z,96127.31
2023-03-20T00:47:19.600Z,96114.56
2023-03-20T00:49:51.338Z,96113.09
2023-03-20T00:52:19.809Z,96100.09
2023-03-20T00:54:47.029Z,96082.25
2023-03-20T00:57:28.421Z,96090.44
2023-03-20T00:59:57.584Z,96066.41
2023-03-20T01:02:27.227Z,96066.34
2023-03-20T01:04:54.231Z,96066.22
2023-03-20T01:07:21.850Z,96045.66
2023-03-20T01:09:48.802Z,96056.41
2023-03-20T01:12:17.801Z,96060.06
2023-03-20T01:14:46.374Z,96049.19
2023-03-20T01:17:21.043Z,96056.88
2023-03-20T01:19:47.903Z,96046.44
2023-03-20T01:22:14.969Z,96039.56
2023-03-20T01:24:42.227Z,96044.69
2023-03-20T01:27:17.848Z,96020.00
2023-03-20T01:29:45.366Z,96032.41
2023-03-20T01:32:14.388Z,96026.28
2023-03-20T01:34:42.437Z,96014.19
2023-03-20T01:37:17.078Z,96024.59
2023-03-20T01:39:43.966Z,96008.59
2023-03-20T01:42:14.370Z,95992.63
2023-03-20T01:44:41.129Z,95998.06
2023-03-20T01:47:16.985Z,95980.28
2023-03-20T01:50:19.097Z,95979.28
2023-03-20T01:52:48.771Z,95969.25
2023-03-20T01:55:15.646Z,95951.06
2023-03-20T01:57:42.335Z,95943.06
2023-03-20T02:00:15.690Z,95938.59
2023-03-20T02:02:45.184Z,95924.88
2023-03-20T02:05:16.572Z,95936.13
2023-03-20T02:07:47.605Z,95927.13
2023-03-20T02:10:18.145Z,95934.69
2023-03-20T02:12:45.927Z,95934.16
2023-03-20T02:15:16.080Z,95917.50
2023-03-20T02:17:43.599Z,95926.09
2023-03-20T02:20:23.031Z,95917.66
2023-03-20T02:23:34.011Z,95902.41
2023-03-20T02:26:29.324Z,95908.59
2023-03-20T02:29:16.894Z,95890.03
2023-03-20T02:31:58.332Z,95883.38
2023-03-20T02:35:02.824Z,95860.81
2023-03-20T02:37:56.890Z,95855.00
2023-03-20T02:40:47.311Z,95843.84
2023-03-20T02:43:57.940Z,95828.47
2023-03-20T02:46:40.877Z,95830.25
2023-03-20T02:49:26.291Z,95804.44
2023-03-20T02:52:05.254Z,95802.72
2023-03-20T02:54:53.594Z,95797.81
2023-03-20T02:57:41.785Z,95801.75
2023-03-20T03:00:20.163Z,95802.69
2023-03-20T03:03:12.741Z,95783.34
2023-03-20T03:05:55.689Z,95780.75
2023-03-20T03:08:28.604Z,95788.19
2023-03-20T03:11:01.471Z,95774.78
2023-03-20T03:13:32.568Z,95775.38
2023-03-20T03:16:05.182Z,95767.91
2023-03-20T03:18:34.618Z,95762.06
2023-03-20T03:21:05.251Z,95757.78
2023-03-20T03:23:35.315Z,95741.50
2023-03-20T03:26:06.790Z,95755.09
2023-03-20T03:28:41.995Z,95744.44
2023-03-20T03:31:13.449Z,95734.81
2023-03-20T03:33:43.467Z,95740.44
2023-03-20T03:36:41.412Z,95731.03
2023-03-20T03:39:11.021Z,95760.59
2023-03-20T03:42:11.511Z,95739.66
2023-03-20T03:44:44.052Z,95746.84
2023-03-20T03:47:35.029Z,95754.06
2023-03-20T03:50:11.640Z,95732.44
2023-03-20T03:52:41.592Z,95734.53
2023-03-20T03:55:18.575Z,95739.50
2023-03-20T03:57:50.259Z,95732.34
2023-03-20T04:00:23.828Z,95723.06
2023-03-20T04:02:54.166Z,95705.53
2023-03-20T04:05:22.883Z,95707.81
2023-03-20T04:07:54.978Z,95703.91
2023-03-20T04:10:21.846Z,95681.09
2023-03-20T04:12:48.644Z,95687.47
2023-03-20T04:15:16.350Z,95672.25
2023-03-20T04:17:43.470Z,95671.91
2023-03-20T04:20:12.375Z,95677.91
2023-03-20T04:22:39.670Z,95655.09
2023-03-20T04:25:08.887Z,95663.41
2023-03-20T04:27:36.039Z,95660.31
2023-03-20T04:30:02.759Z,95646.59
2023-03-20T04:32:29.385Z,95663.56
2023-03-20T04:34:57.532Z,95651.00
2023-03-20T04:37:24.117Z,95645.00
2023-03-20T04:39:52.338Z,95654.03
2023-03-20T04:42:20.158Z,95642.13
2023-03-20T04:44:46.798Z,95625.06
2023-03-20T04:47:13.438Z,95624.84
2023-03-20T04:49:40.476Z,95626.34
2023-03-20T04:52:07.363Z,95615.06
2023-03-20T04:54:34.231Z,95617.91
2023-03-20T04:57:02.335Z,95627.13
2023-03-20T04:59:28.926Z,95616.59
2023-03-20T05:01:55.750Z,95620.28
2023-03-20T05:04:22.763Z,95625.53
2023-03-20T05:06:49.779Z,95618.81
2023-03-20T05:30:30.771Z,95738.59
2023-03-20T05:32:58.101Z,95781.88
2023-03-20T05:35:24.749Z,95800.34
2023-03-20T05:37:52.817Z,95790.69
2023-03-20T05:40:20.501Z,95806.94
2023-03-20T05:42:47.100Z,95800.34
2023-03-20T05:45:16.933Z,95785.38
2023-03-20T05:47:43.520Z,95795.06
2023-03-20T05:50:12.406Z,95797.75
2023-03-20T05:52:39.098Z,95778.09
2023-03-20T05:55:06.080Z,95794.47
2023-03-20T05:57:32.697Z,95795.47
2023-03-20T05:59:59.291Z,95785.78
2023-03-20T06:02:26.176Z,95780.41
2023-03-20T06:04:52.814Z,95772.63
2023-03-20T06:07:20.076Z,95760.75
2023-03-20T06:09:46.738Z,95752.81
2023-03-20T06:12:14.742Z,95761.00
2023-03-20T06:14:41.330Z,95749.72
2023-03-20T06:17:07.997Z,95745.16
2023-03-20T06:19:35.933Z,95748.75
2023-03-20T06:22:02.776Z,95738.84
2023-03-20T06:24:30.746Z,95724.44
2023-03-20T06:26:57.545Z,95730.44
2023-03-20T06:29:25.003Z,95720.56
2023-03-20T06:31:52.566Z,95703.97
2023-03-20T06:34:19.206Z,95712.94
2023-03-20T06:36:45.869Z,95706.78
2023-03-20T06:39:12.998Z,95681.94
2023-03-20T06:41:39.913Z,95685.53
2023-03-20T06:44:06.964Z,95679.88
2023-03-20T06:46:33.697Z,95668.16
2023-03-20T06:49:00.376Z,95677.19
2023-03-20T06:51:27.060Z,95681.06
2023-03-20T06:53:53.751Z,95663.72
2023-03-20T06:56:20.485Z,95662.84
2023-03-20T06:58:47.143Z,95663.31
2023-03-20T07:01:17.298Z,95656.25
2023-03-20T07:03:44.117Z,95654.78
2023-03-20T07:06:12.283Z,95653.34
2023-03-20T07:08:39.641Z,95633.56
2023-03-20T07:11:06.633Z,95645.97
2023-03-20T07:13:35.238Z,95639.84
2023-03-20T07:16:04.892Z,95651.34
2023-03-20T07:18:32.295Z,95672.69
2023-03-20T07:21:02.690Z,95681.84
2023-03-20T07:23:30.777Z,95692.50
2023-03-20T07:26:00.105Z,95707.09
2023-03-20T07:28:27.143Z,95723.81
2023-03-20T07:30:55.085Z,95730.63
2023-03-20T07:33:21.847Z,95751.19
2023-03-20T07:35:53.820Z,95773.31
2023-03-20T07:38:22.629Z,95784.97
2023-03-20T07:40:49.711Z,95803.69
2023-03-20T07:43:17.107Z,95823.50
2023-03-20T07:45:43.796Z,95844.88
2023-03-20T07:48:10.488Z,95851.66
2023-03-20T07:50:37.198Z,95870.75
2023-03-20T07:53:03.808Z,95880.28
2023-03-20T07:55:30.514Z,95904.38
2023-03-20T07:57:57.117Z,95913.44
2023-03-20T08:00:27.814Z,95927.91
2023-03-20T08:02:57.006Z,95941.69
2023-03-20T08:05:24.632Z,95968.81
2023-03-20T08:07:51.628Z,95976.47
2023-03-20T08:10:18.672Z,95987.91
2023-03-20T08:12:46.710Z,95997.16
2023-03-20T08:15:13.696Z,96014.75
2023-03-20T08:17:44.727Z,96039.06
2023-03-20T08:20:13.153Z,96048.59
2023-03-20T08:22:40.865Z,96061.31
2023-03-20T08:25:08.578Z,96079.25
2023-03-20T08:27:36.725Z,96095.19
2023-03-20T08:30:04.785Z,96103.69
2023-03-20T08:32:31.850Z,96107.94
2023-03-20T08:34:59.186Z,96118.91
2023-03-20T08:37:25.984Z,96128.97
2023-03-20T08:39:53.773Z,96127.50
2023-03-20T08:42:21.758Z,96137.44
2023-03-20T08:44:48.417Z,96146.53
2023-03-20T08:47:15.055Z,96154.25
2023-03-20T08:49:42.067Z,96153.56
2023-03-20T08:52:08.884Z,96171.22
2023-03-20T08:54:35.645Z,96182.81
2023-03-20T08:57:03.747Z,96196.66
2023-03-20T08:59:32.709Z,96205.16
2023-03-20T09:01:59.387Z,96216.75
2023-03-20T09:04:26.253Z,96226.81
2023-03-20T09:06:52.965Z,96233.47
2023-03-20T09:09:21.563Z,96256.06
2023-03-20T09:11:48.355Z,96269.25
2023-03-20T09:14:15.188Z,96283.13
2023-03-20T09:16:42.238Z,96311.53
2023-03-20T09:19:08.926Z,96317.59
2023-03-20T09:21:35.639Z,96329.88
2023-03-20T09:24:02.230Z,96335.44
2023-03-20T09:26:30.120Z,96339.44
2023-03-20T09:28:59.114Z,96361.19
2023-03-20T09:31:27.301Z,96374.28
2023-03-20T09:33:54.265Z,96379.97
2023-03-20T09:36:22.825Z,96377.75
2023-03-20T09:38:50.778Z,96390.47
2023-03-20T09:41:22.533Z,96409.09
2023-03-20T09:44:03.327Z,96410.66
2023-03-20T09:46:49.367Z,96413.84
2023-03-20T09:49:35.462Z,96423.06
2023-03-20T09:52:12.755Z,96432.56
2023-03-20T09:54:54.754Z,96450.25
2023-03-20T09:57:29.581Z,96467.97
2023-03-20T10:00:20.335Z,96466.00
2023-03-20T10:02:54.475Z,96447.22
2023-03-20T10:05:36.045Z,96432.41
2023-03-20T10:08:04.965Z,96424.97
2023-03-20T10:10:58.038Z,96431.41
2023-03-20T10:13:53.980Z,96439.28
2023-03-20T10:16:39.146Z,96411.84
2023-03-20T10:19:28.750Z,96388.28
2023-03-20T10:22:26.359Z,96403.34
2023-03-20T10:24:59.262Z,96393.28
2023-03-20T10:27:40.679Z,96369.69
2023-03-20T10:30:34.100Z,96385.81
2023-03-20T10:33:29.919Z,96378.03
2023-03-20T10:36:05.334Z,96355.53
2023-03-20T10:38:53.082Z,96373.88
2023-03-20T10:41:28.803Z,96373.28
2023-03-20T10:43:57.724Z,96354.97
2023-03-20T10:46:30.535Z,96358.50
2023-03-20T10:49:16.707Z,96347.97
2023-03-20T10:51:51.253Z,96349.00
2023-03-20T10:54:31.797Z,96382.00
2023-03-20T10:57:02.442Z,96368.41
2023-03-20T10:59:38.882Z,96396.91
2023-03-20T11:02:13.318Z,96394.22
2023-03-20T11:04:40.894Z,96398.25
2023-03-20T11:07:35.680Z,96418.16
2023-03-20T11:10:06.407Z,96426.56
2023-03-20T11:12:37.449Z,96418.53
2023-03-20T11:15:17.707Z,96468.13
2023-03-20T11:17:52.296Z,96447.44
2023-03-20T11:20:18.872Z,96455.28
2023-03-20T11:22:48.897Z,96475.94
2023-03-20T11:25:31.146Z,96464.66
2023-03-20T11:28:18.395Z,96467.88
2023-03-20T11:31:03.572Z,96485.78
2023-03-20T11:33:31.587Z,96467.97
2023-03-20T11:35:59.524Z,96499.63
2023-03-20T11:38:26.353Z,96503.47
2023-03-20T11:40:53.685Z,96476.53
2023-03-20T11:43:23.359Z,96477.44
2023-03-20T11:45:57.441Z,96464.19
2023-03-20T12:47:48.345Z,96063.16
2023-03-20T12:51:03.827Z,96157.56
2023-03-20T12:53:55.226Z,96180.09
2023-03-20T12:56:31.474Z,96241.00
2023-03-20T12:59:24.796Z,96280.34
2023-03-20T13:02:30.268Z,96322.16
2023-03-20T13:05:08.337Z,96361.09
2023-03-20T13:08:07.674Z,96360.47
2023-03-20T13:10:46.479Z,96431.78
2023-03-20T13:13:42.403Z,96474.03
2023-03-20T13:16:24.125Z,96548.09
2023-03-20T13:19:11.600Z,96579.53
2023-03-20T13:21:59.112Z,96595.09
2023-03-20T13:24:39.417Z,96677.31
2023-03-20T13:27:27.263Z,96707.94
2023-03-20T13:30:08.522Z,96810.44
2023-03-20T13:33:06.962Z,96867.94
2023-03-20T13:35:33.708Z,96890.69
2023-03-20T13:38:07.370Z,96937.75
2023-03-20T13:40:43.998Z,96961.97
2023-03-20T13:43:37.621Z,96981.28
2023-03-20T13:46:22.129Z,96970.81
2023-03-20T13:48:51.475Z,96967.25
2023-03-20T13:51:34.639Z,97022.22
2023-03-20T13:54:21.380Z,97034.94
2023-03-20T13:57:45.480Z,97062.19
2023-03-20T14:00:31.448Z,97143.97
2023-03-20T14:03:13.248Z,97164.81
2023-03-20T14:05:41.935Z,97196.59
2023-03-20T14:08:33.629Z,97197.13
2023-03-20T14:11:10.131Z,97265.13
2023-03-20T14:13:37.276Z,97253.50
2023-03-20T14:16:08.927Z,97224.56
2023-03-20T14:18:36.560Z,97206.72
2023-03-20T14:21:11.729Z,97171.56
2023-03-20T14:23:44.319Z,97162.38
2023-03-20T14:26:23.626Z,97168.53
2023-03-20T14:28:54.852Z,97142.41
2023-03-20T14:31:24.951Z,97148.47
2023-03-20T14:34:14.680Z,97138.63
2023-03-20T14:36:44.242Z,97115.31
2023-03-20T14:39:28.957Z,97168.13
2023-03-20T14:41:58.507Z,97176.13
2023-03-20T14:44:49.789Z,97167.94
2023-03-20T14:47:26.116Z,97193.50
2023-03-20T14:49:52.736Z,97177.81
2023-03-20T14:52:25.456Z,97170.75
2023-03-20T14:54:54.151Z,97166.16
2023-03-20T14:57:45.479Z,97169.63
2023-03-20T15:00:26.882Z,97170.47
2023-03-20T15:03:17.659Z,97204.16
2023-03-20T15:05:45.901Z,97189.22
2023-03-20T15:08:29.955Z,97200.13
2023-03-20T15:11:00.031Z,97205.84
2023-03-20T15:13:28.314Z,97183.56
2023-03-20T15:16:05.060Z,97185.28
2023-03-20T15:18:37.947Z,97186.88
2023-03-20T15:21:11.538Z,97198.59
2023-03-20T15:23:41.543Z,97208.13
2023-03-20T15:26:09.771Z,97184.66
2023-03-20T15:28:37.800Z,97176.72
2023-03-20T15:31:06.992Z,97152.16
2023-03-20T15:33:42.085Z,97107.53
2023-03-20T15:36:21.404Z,97103.91
2023-03-20T15:38:49.285Z,97102.75
2023-03-20T15:41:38.283Z,97073.72
2023-03-20T15:44:20.099Z,97090.59
2023-03-20T15:47:20.795Z,97046.13
2023-03-20T15:49:55.964Z,97022.03
2023-03-20T15:52:28.482Z,97008.91
2023-03-20T15:54:59.283Z,96977.25
2023-03-20T15:57:38.090Z,96940.81
2023-03-20T16:00:13.368Z,96913.97
2023-03-20T16:02:40.613Z,96870.88
2023-03-20T16:05:13.842Z,96841.16
2023-03-20T16:07:41.236Z,96820.06
2023-03-20T16:10:30.863Z,96779.22
2023-03-20T16:12:58.078Z,96807.91
2023-03-20T16:15:27.777Z,96809.44
2023-03-20T16:17:58.021Z,96808.09
2023-03-20T16:20:28.879Z,96798.97
2023-03-20T16:23:05.423Z,96821.34
2023-03-20T16:25:33.256Z,96814.63
2023-03-20T16:27:59.880Z,96817.22
2023-03-20T16:30:30.624Z,96847.03
2023-03-20T16:33:13.552Z,96857.91
2023-03-20T16:35:44.611Z,96869.94
2023-03-20T16:38:29.373Z,96895.00
2023-03-20T16:41:13.191Z,96889.22
2023-03-20T16:43:39.994Z,96907.81
2023-03-20T16:46:07.297Z,96918.69
2023-03-20T16:48:37.863Z,96917.88
2023-03-20T16:51:29.499Z,96931.56
2023-03-20T16:53:59.145Z,96918.41
2023-03-20T16:56:34.947Z,96903.03
2023-03-20T16:59:16.581Z,96905.84
2023-03-20T17:01:45.163Z,96897.69
2023-03-20T17:04:19.073Z,96885.97
2023-03-20T17:07:07.477Z,96914.97
2023-03-20T17:09:34.140Z,96896.81
2023-03-20T17:12:14.926Z,96899.94
2023-03-20T17:14:41.751Z,96902.84
2023-03-20T17:17:19.331Z,96883.34
2023-03-20T17:19:47.511Z,96880.19
2023-03-20T17:22:22.030Z,96877.38
2023-03-20T17:24:48.689Z,96867.63
2023-03-20T17:27:18.351Z,96858.19
2023-03-20T17:29:47.600Z,96867.66
2023-03-20T17:32:24.012Z,96866.06
2023-03-20T17:34:51.316Z,96856.00
2023-03-20T17:37:24.127Z,96874.28
2023-03-20T17:39:50.912Z,96850.34
2023-03-20T17:42:18.805Z,96834.44
2023-03-20T17:44:48.375Z,96834.59
2023-03-20T17:47:18.122Z,96839.81
2023-03-20T17:49:45.705Z,96815.41
2023-03-20T17:52:17.788Z,96817.94
2023-03-20T17:54:44.901Z,96809.13
2023-03-20T17:57:27.010Z,96794.66
2023-03-20T17:59:53.702Z,96776.53
2023-03-20T18:02:20.440Z,96767.25
2023-03-20T18:04:47.343Z,96752.63
2023-03-20T18:07:15.026Z,96741.41
2023-03-20T18:09:43.097Z,96747.75
2023-03-20T18:12:15.889Z,96759.06
2023-03-20T18:14:43.224Z,96737.34
2023-03-20T18:17:12.704Z,96740.06
2023-03-20T18:19:39.786Z,96733.13
2023-03-20T18:22:07.073Z,96718.00
2023-03-20T18:24:33.810Z,96729.06
2023-03-20T18:27:00.776Z,96735.84
2023-03-20T18:29:27.758Z,96730.94
2023-03-20T18:31:54.481Z,96741.81
2023-03-20T18:34:21.307Z,96795.44
2023-03-20T18:36:47.993Z,96771.38
2023-03-20T18:39:28.917Z,96756.91
2023-03-20T18:41:55.564Z,96749.69
2023-03-20T18:44:22.440Z,96748.59
2023-03-20T18:46:49.395Z,96756.13
2023-03-20T18:49:18.035Z,96756.59
2023-03-20T18:51:46.069Z,96748.75
2023-03-20T18:54:15.158Z,96755.19
2023-03-20T18:56:43.020Z,96748.56
2023-03-20T18:59:12.478Z,96730.66
2023-03-20T19:01:39.493Z,96728.00
2023-03-20T19:04:06.419Z,96732.56
2023-03-20T19:06:33.437Z,96725.47
2023-03-20T19:09:04.897Z,96708.19
2023-03-20T19:11:31.598Z,96699.38
2023-03-20T19:13:58.575Z,96673.91
2023-03-20T19:16:27.055Z,96674.56
2023-03-20T19:18:56.554Z,96708.47
2023-03-20T19:21:26.611Z,96712.56
2023-03-20T19:23:59.034Z,96701.13
2023-03-20T19:26:28.020Z,96704.09
2023-03-20T19:28:56.484Z,96690.59
2023-03-20T19:31:24.107Z,96673.47
2023-03-20T19:33:53.223Z,96675.81
2023-03-20T19:36:27.675Z,96664.03
2023-03-20T19:38:54.810Z,96658.81
2023-03-20T19:41:21.483Z,96663.53
2023-03-20T19:43:53.638Z,96656.63
2023-03-20T19:46:39.737Z,96653.00
2023-03-20T19:49:28.986Z,96665.41
2023-03-20T19:51:57.147Z,96661.34
2023-03-20T19:54:23.997Z,96650.81
2023-03-20T19:56:50.673Z,96672.81
2023-03-20T19:59:17.423Z,96667.94
2023-03-20T20:01:46.261Z,96661.84
2023-03-20T20:04:13.146Z,96699.47
2023-03-20T20:06:41.615Z,96715.13
2023-03-20T20:09:09.671Z,96706.69
2023-03-20T20:11:36.298Z,96720.16
2023-03-20T20:14:08.706Z,96745.97
2023-03-20T20:16:37.699Z,96741.94
2023-03-20T20:19:04.874Z,96753.22
2023-03-20T20:22:17.135Z,96747.53
2023-03-20T20:24:19.125Z,96735.97
2023-03-20T20:27:07.046Z,96736.13
2023-03-20T20:29:41.182Z,96736.25
2023-03-20T20:32:07.885Z,96725.94
2023-03-20T20:40:12.170Z,96701.75
2023-03-20T20:42:40.543Z,96697.84
2023-03-20T20:45:11.846Z,96701.75
2023-03-20T20:47:42.111Z,96683.91
2023-03-20T20:50:09.977Z,96683.75
2023-03-20T20:52:39.164Z,96686.25
2023-03-20T20:55:22.248Z,96703.94
2023-03-20T20:57:50.506Z,96700.88
2023-03-20T21:00:18.466Z,96708.19
2023-03-20T21:02:45.197Z,96709.59
2023-03-20T21:05:15.694Z,96708.22
2023-03-20T21:07:44.829Z,96713.03
2023-03-20T21:10:13.863Z,96733.09
2023-03-20T21:12:57.784Z,96719.94
2023-03-20T21:15:28.440Z,96750.31
2023-03-20T21:18:01.025Z,96762.66
2023-03-20T21:20:29.851Z,96767.91
2023-03-20T21:22:56.446Z,96783.59
2023-03-20T21:25:36.394Z,96793.22
2023-03-20T21:28:06.737Z,96810.38
2023-03-20T21:30:33.743Z,96831.53
2023-03-20T21:33:00.682Z,96852.78
2023-03-20T21:35:27.641Z,96857.78
2023-03-20T21:40:42.750Z,96887.84
2023-03-20T21:43:10.412Z,96881.88
2023-03-20T21:46:25.186Z,96883.16
2023-03-20T21:49:03.792Z,96885.53
2023-03-20T22:02:25.216Z,96893.53
2023-03-20T22:08:19.258Z,96905.97
2023-03-20T22:14:22.320Z,96921.59
2023-03-20T22:22:48.539Z,96954.38
2023-03-20T22:46:55.644Z,97032.47
2023-03-20T22:49:22.455Z,97032.38
2023-03-20T22:52:07.730Z,97032.00
2023-03-20T22:54:36.053Z,97043.22
2023-03-20T22:57:03.188Z,97040.97
2023-03-20T22:59:29.886Z,97026.25
2023-03-20T23:01:56.545Z,97037.50
2023-03-20T23:04:23.281Z,97046.41
2023-03-20T23:06:50.020Z,97062.34
2023-03-20T23:09:18.116Z,97024.09
2023-03-20T23:11:44.734Z,97029.88
2023-03-20T23:14:21.283Z,97056.72
2023-03-20T23:16:48.594Z,97080.03
2023-03-20T23:19:15.672Z,97075.94
2023-03-20T23:21:42.305Z,97097.38
2023-03-20T23:24:11.035Z,97114.91
2023-03-20T23:26:37.692Z,97114.16
2023-03-20T23:29:05.764Z,97119.47
2023-03-20T23:31:32.628Z,97127.41
2023-03-20T23:33:59.373Z,97128.63
2023-03-20T23:36:42.071Z,97133.19
2023-03-20T23:39:11.767Z,97132.31
2023-03-20T23:44:26.562Z,97135.88
2023-03-20T23:46:55.491Z,97142.06
2023-03-20T23:49:22.989Z,97159.47
2023-03-20T23:51:49.665Z,97165.38
2023-03-20T23:54:16.377Z,97180.78
2023-03-20T23:56:43.063Z,97192.09
2023-03-20T23:59:20.511Z,97205.13
